sensor_id;sensor_type;location;lat;lon;timestamp;temperature;humidity
41928;DHT22;27616;51.420;6.788;2023-05-07T00:00:12;15.20;99.90
41928;DHT22;27616;51.420;6.788;2023-05-07T00:02:40;15.20;99.90
41928;DHT22;27616;51.420;6.788;2023-05-07T00:05:07;15.30;99.90
41928;DHT22;27616;51.420;6.788;2023-05-07T00:07:32;15.30;99.90
41928;DHT22;27616;51.420;6.788;2023-05-07T00:09:58;15.30;99.90
41928;DHT22;27616;51.420;6.788;2023-05-07T00:12:24;15.20;99.90
41928;DHT22;27616;51.420;6.788;2023-05-07T00:14:49;15.20;99.90
41928;DHT22;27616;51.420;6.788;2023-05-07T00:17:15;15.20;99.90
41928;DHT22;27616;51.420;6.788;2023-05-07T00:19:41;15.10;99.90
41928;DHT22;27616;51.420;6.788;2023-05-07T00:22:07;15.10;99.90
41928;DHT22;27616;51.420;6.788;2023-05-07T00:24:33;15.10;99.90
41928;DHT22;27616;51.420;6.788;2023-05-07T00:26:59;15.20;99.90
41928;DHT22;27616;51.420;6.788;2023-05-07T00:29:24;15.20;99.90
41928;DHT22;27616;51.420;6.788;2023-05-07T00:31:50;15.20;99.90
41928;DHT22;27616;51.420;6.788;2023-05-07T00:34:16;15.20;99.90
41928;DHT22;27616;51.420;6.788;2023-05-07T00:36:42;15.10;99.90
41928;DHT22;27616;51.420;6.788;2023-05-07T00:39:07;15.10;99.90
41928;DHT22;27616;51.420;6.788;2023-05-07T00:41:33;15.00;99.90
41928;DHT22;27616;51.420;6.788;2023-05-07T00:43:59;15.00;99.90
41928;DHT22;27616;51.420;6.788;2023-05-07T00:46:26;15.00;99.90
41928;DHT22;27616;51.420;6.788;2023-05-07T00:48:52;15.00;99.90
41928;DHT22;27616;51.420;6.788;2023-05-07T00:51:18;15.00;99.90
41928;DHT22;27616;51.420;6.788;2023-05-07T00:53:45;14.90;99.90
41928;DHT22;27616;51.420;6.788;2023-05-07T00:56:11;14.80;99.90
41928;DHT22;27616;51.420;6.788;2023-05-07T00:58:38;14.80;99.90
41928;DHT22;27616;51.420;6.788;2023-05-07T01:01:04;14.70;99.90
41928;DHT22;27616;51.420;6.788;2023-05-07T01:03:29;14.70;99.90
41928;DHT22;27616;51.420;6.788;2023-05-07T01:05:56;14.60;99.90
41928;DHT22;27616;51.420;6.788;2023-05-07T01:08:23;14.60;99.90
41928;DHT22;27616;51.420;6.788;2023-05-07T01:10:52;14.60;99.90
41928;DHT22;27616;51.420;6.788;2023-05-07T01:13:19;14.60;99.90
41928;DHT22;27616;51.420;6.788;2023-05-07T01:15:46;14.60;99.90
41928;DHT22;27616;51.420;6.788;2023-05-07T01:18:12;14.60;99.90
41928;DHT22;27616;51.420;6.788;2023-05-07T01:20:37;14.50;99.90
41928;DHT22;27616;51.420;6.788;2023-05-07T01:23:03;14.50;99.90
41928;DHT22;27616;51.420;6.788;2023-05-07T01:25:31;14.40;99.90
41928;DHT22;27616;51.420;6.788;2023-05-07T01:27:59;14.40;99.90
41928;DHT22;27616;51.420;6.788;2023-05-07T01:30:30;14.40;99.90
41928;DHT22;27616;51.420;6.788;2023-05-07T01:33:08;14.30;99.90
41928;DHT22;27616;51.420;6.788;2023-05-07T01:35:38;14.30;99.90
41928;DHT22;27616;51.420;6.788;2023-05-07T01:38:05;14.30;99.90
41928;DHT22;27616;51.420;6.788;2023-05-07T01:40:31;14.30;99.90
41928;DHT22;27616;51.420;6.788;2023-05-07T01:42:57;14.20;99.90
41928;DHT22;27616;51.420;6.788;2023-05-07T01:45:24;14.20;99.90
41928;DHT22;27616;51.420;6.788;2023-05-07T01:47:51;14.20;99.90
41928;DHT22;27616;51.420;6.788;2023-05-07T01:50:19;14.30;99.90
41928;DHT22;27616;51.420;6.788;2023-05-07T01:52:47;14.30;99.90
41928;DHT22;27616;51.420;6.788;2023-05-07T01:55:13;14.30;99.90
41928;DHT22;27616;51.420;6.788;2023-05-07T01:57:38;14.30;99.90
41928;DHT22;27616;51.420;6.788;2023-05-07T02:00:06;14.30;99.90
41928;DHT22;27616;51.420;6.788;2023-05-07T02:02:41;14.30;99.90
41928;DHT22;27616;51.420;6.788;2023-05-07T02:05:13;14.20;99.90
41928;DHT22;27616;51.420;6.788;2023-05-07T02:07:40;14.20;99.90
41928;DHT22;27616;51.420;6.788;2023-05-07T02:10:06;14.20;99.90
41928;DHT22;27616;51.420;6.788;2023-05-07T02:12:32;14.20;99.90
41928;DHT22;27616;51.420;6.788;2023-05-07T02:14:58;14.20;99.90
41928;DHT22;27616;51.420;6.788;2023-05-07T02:17:23;14.20;99.90
41928;DHT22;27616;51.420;6.788;2023-05-07T02:19:50;14.10;99.90
41928;DHT22;27616;51.420;6.788;2023-05-07T02:22:15;14.10;99.90
41928;DHT22;27616;51.420;6.788;2023-05-07T02:24:41;14.10;99.90
41928;DHT22;27616;51.420;6.788;2023-05-07T02:27:07;14.10;99.90
41928;DHT22;27616;51.420;6.788;2023-05-07T02:29:33;14.10;99.90
41928;DHT22;27616;51.420;6.788;2023-05-07T02:31:58;14.10;99.90
41928;DHT22;27616;51.420;6.788;2023-05-07T02:34:24;14.00;99.90
41928;DHT22;27616;51.420;6.788;2023-05-07T02:36:50;14.00;99.90
41928;DHT22;27616;51.420;6.788;2023-05-07T02:39:19;14.00;99.90
41928;DHT22;27616;51.420;6.788;2023-05-07T02:41:45;14.00;99.90
41928;DHT22;27616;51.420;6.788;2023-05-07T02:44:11;14.00;99.90
41928;DHT22;27616;51.420;6.788;2023-05-07T02:46:38;14.00;99.90
41928;DHT22;27616;51.420;6.788;2023-05-07T02:49:07;14.00;99.90
41928;DHT22;27616;51.420;6.788;2023-05-07T02:51:34;14.00;99.90
41928;DHT22;27616;51.420;6.788;2023-05-07T02:54:02;13.90;99.90
41928;DHT22;27616;51.420;6.788;2023-05-07T02:56:30;13.90;99.90
41928;DHT22;27616;51.420;6.788;2023-05-07T02:58:56;13.90;99.90
41928;DHT22;27616;51.420;6.788;2023-05-07T03:01:25;13.90;99.90
41928;DHT22;27616;51.420;6.788;2023-05-07T03:04:03;13.90;99.90
41928;DHT22;27616;51.420;6.788;2023-05-07T03:06:29;13.90;99.90
41928;DHT22;27616;51.420;6.788;2023-05-07T03:08:55;13.90;99.90
41928;DHT22;27616;51.420;6.788;2023-05-07T03:11:20;13.90;99.90
41928;DHT22;27616;51.420;6.788;2023-05-07T03:13:46;14.00;99.90
41928;DHT22;27616;51.420;6.788;2023-05-07T03:16:15;14.00;99.90
41928;DHT22;27616;51.420;6.788;2023-05-07T03:18:41;14.00;99.90
41928;DHT22;27616;51.420;6.788;2023-05-07T03:21:06;13.90;99.90
41928;DHT22;27616;51.420;6.788;2023-05-07T03:23:32;13.90;99.90
41928;DHT22;27616;51.420;6.788;2023-05-07T03:25:58;13.90;99.90
41928;DHT22;27616;51.420;6.788;2023-05-07T03:28:23;13.90;99.90
41928;DHT22;27616;51.420;6.788;2023-05-07T03:30:54;13.90;99.90
41928;DHT22;27616;51.420;6.788;2023-05-07T03:33:20;13.90;99.90
41928;DHT22;27616;51.420;6.788;2023-05-07T03:35:46;13.90;99.90
41928;DHT22;27616;51.420;6.788;2023-05-07T03:38:17;13.90;99.90
41928;DHT22;27616;51.420;6.788;2023-05-07T03:40:43;13.90;99.90
41928;DHT22;27616;51.420;6.788;2023-05-07T03:43:09;13.90;99.90
41928;DHT22;27616;51.420;6.788;2023-05-07T03:45:38;14.00;99.90
41928;DHT22;27616;51.420;6.788;2023-05-07T03:48:24;14.00;99.90
41928;DHT22;27616;51.420;6.788;2023-05-07T03:50:53;13.90;99.90
41928;DHT22;27616;51.420;6.788;2023-05-07T03:53:19;13.90;99.90
41928;DHT22;27616;51.420;6.788;2023-05-07T03:55:45;13.90;99.90
41928;DHT22;27616;51.420;6.788;2023-05-07T03:58:11;13.90;99.90
41928;DHT22;27616;51.420;6.788;2023-05-07T04:00:37;13.90;99.90
41928;DHT22;27616;51.420;6.788;2023-05-07T04:03:13;13.80;99.90
41928;DHT22;27616;51.420;6.788;2023-05-07T04:05:38;13.80;99.90
41928;DHT22;27616;51.420;6.788;2023-05-07T04:08:04;13.80;99.90
41928;DHT22;27616;51.420;6.788;2023-05-07T04:10:38;13.80;99.90
41928;DHT22;27616;51.420;6.788;2023-05-07T04:13:08;13.80;99.90
41928;DHT22;27616;51.420;6.788;2023-05-07T04:15:35;13.90;99.90
41928;DHT22;27616;51.420;6.788;2023-05-07T04:18:01;13.90;99.90
41928;DHT22;27616;51.420;6.788;2023-05-07T04:20:27;13.90;99.90
41928;DHT22;27616;51.420;6.788;2023-05-07T04:22:58;13.90;99.90
41928;DHT22;27616;51.420;6.788;2023-05-07T04:25:25;13.90;99.90
41928;DHT22;27616;51.420;6.788;2023-05-07T04:27:54;13.90;99.90
41928;DHT22;27616;51.420;6.788;2023-05-07T04:30:21;13.90;99.90
41928;DHT22;27616;51.420;6.788;2023-05-07T04:32:47;13.90;99.90
41928;DHT22;27616;51.420;6.788;2023-05-07T04:35:13;13.90;99.90
41928;DHT22;27616;51.420;6.788;2023-05-07T04:37:41;14.00;99.90
41928;DHT22;27616;51.420;6.788;2023-05-07T04:40:07;14.00;99.90
41928;DHT22;27616;51.420;6.788;2023-05-07T04:42:33;14.00;99.90
41928;DHT22;27616;51.420;6.788;2023-05-07T04:45:01;14.00;99.90
41928;DHT22;27616;51.420;6.788;2023-05-07T04:47:29;14.10;99.90
41928;DHT22;27616;51.420;6.788;2023-05-07T04:49:54;14.10;99.90
41928;DHT22;27616;51.420;6.788;2023-05-07T04:52:20;14.10;99.90
41928;DHT22;27616;51.420;6.788;2023-05-07T04:54:46;14.10;99.90
41928;DHT22;27616;51.420;6.788;2023-05-07T04:57:12;14.00;99.90
41928;DHT22;27616;51.420;6.788;2023-05-07T04:59:38;14.00;99.90
41928;DHT22;27616;51.420;6.788;2023-05-07T05:02:04;14.10;99.90
41928;DHT22;27616;51.420;6.788;2023-05-07T05:04:31;14.10;99.90
41928;DHT22;27616;51.420;6.788;2023-05-07T05:06:57;14.20;99.90
41928;DHT22;27616;51.420;6.788;2023-05-07T05:09:24;14.20;99.90
41928;DHT22;27616;51.420;6.788;2023-05-07T05:11:50;14.30;99.90
41928;DHT22;27616;51.420;6.788;2023-05-07T05:14:16;14.30;99.90
41928;DHT22;27616;51.420;6.788;2023-05-07T05:16:41;14.40;99.90
41928;DHT22;27616;51.420;6.788;2023-05-07T05:19:07;14.40;99.90
41928;DHT22;27616;51.420;6.788;2023-05-07T05:21:36;14.40;99.90
41928;DHT22;27616;51.420;6.788;2023-05-07T05:24:06;14.50;99.90
41928;DHT22;27616;51.420;6.788;2023-05-07T05:26:32;14.50;99.90
41928;DHT22;27616;51.420;6.788;2023-05-07T05:28:58;14.60;99.90
41928;DHT22;27616;51.420;6.788;2023-05-07T05:31:26;14.70;99.90
41928;DHT22;27616;51.420;6.788;2023-05-07T05:33:51;14.80;99.90
41928;DHT22;27616;51.420;6.788;2023-05-07T05:36:17;14.80;99.90
41928;DHT22;27616;51.420;6.788;2023-05-07T05:38:45;14.90;99.90
41928;DHT22;27616;51.420;6.788;2023-05-07T05:41:11;15.00;99.90
41928;DHT22;27616;51.420;6.788;2023-05-07T05:43:37;15.00;99.90
41928;DHT22;27616;51.420;6.788;2023-05-07T05:46:03;15.10;99.90
41928;DHT22;27616;51.420;6.788;2023-05-07T05:48:30;15.20;99.90
41928;DHT22;27616;51.420;6.788;2023-05-07T05:50:57;15.20;99.90
41928;DHT22;27616;51.420;6.788;2023-05-07T05:53:23;15.30;99.90
41928;DHT22;27616;51.420;6.788;2023-05-07T05:55:49;15.40;99.90
41928;DHT22;27616;51.420;6.788;2023-05-07T05:58:15;15.50;99.90
41928;DHT22;27616;51.420;6.788;2023-05-07T06:00:47;15.50;99.90
41928;DHT22;27616;51.420;6.788;2023-05-07T06:03:14;15.50;99.90
41928;DHT22;27616;51.420;6.788;2023-05-07T06:05:41;15.60;99.90
41928;DHT22;27616;51.420;6.788;2023-05-07T06:08:08;15.60;99.90
41928;DHT22;27616;51.420;6.788;2023-05-07T06:10:36;15.80;99.90
41928;DHT22;27616;51.420;6.788;2023-05-07T06:13:04;15.90;99.90
41928;DHT22;27616;51.420;6.788;2023-05-07T06:15:32;15.90;99.90
41928;DHT22;27616;51.420;6.788;2023-05-07T06:18:03;16.10;99.90
41928;DHT22;27616;51.420;6.788;2023-05-07T06:20:28;16.20;99.90
41928;DHT22;27616;51.420;6.788;2023-05-07T06:22:54;16.30;99.90
41928;DHT22;27616;51.420;6.788;2023-05-07T06:25:20;16.30;99.90
41928;DHT22;27616;51.420;6.788;2023-05-07T06:27:46;16.40;99.90
41928;DHT22;27616;51.420;6.788;2023-05-07T06:30:12;16.30;99.90
41928;DHT22;27616;51.420;6.788;2023-05-07T06:32:40;16.30;99.90
41928;DHT22;27616;51.420;6.788;2023-05-07T06:35:07;16.30;99.90
41928;DHT22;27616;51.420;6.788;2023-05-07T06:37:36;16.30;99.90
41928;DHT22;27616;51.420;6.788;2023-05-07T06:40:06;16.30;99.90
41928;DHT22;27616;51.420;6.788;2023-05-07T06:42:35;16.30;99.90
41928;DHT22;27616;51.420;6.788;2023-05-07T06:45:17;16.30;99.90
41928;DHT22;27616;51.420;6.788;2023-05-07T06:47:43;16.30;99.90
41928;DHT22;27616;51.420;6.788;2023-05-07T06:50:09;16.20;99.90
41928;DHT22;27616;51.420;6.788;2023-05-07T06:52:35;16.20;99.90
41928;DHT22;27616;51.420;6.788;2023-05-07T06:55:01;16.20;99.90
41928;DHT22;27616;51.420;6.788;2023-05-07T06:57:27;16.30;99.90
41928;DHT22;27616;51.420;6.788;2023-05-07T06:59:53;16.30;99.90
41928;DHT22;27616;51.420;6.788;2023-05-07T07:02:20;16.40;99.90
41928;DHT22;27616;51.420;6.788;2023-05-07T07:04:48;16.40;99.90
41928;DHT22;27616;51.420;6.788;2023-05-07T07:07:14;16.50;99.90
41928;DHT22;27616;51.420;6.788;2023-05-07T07:09:41;16.60;99.90
41928;DHT22;27616;51.420;6.788;2023-05-07T07:12:08;16.70;99.90
41928;DHT22;27616;51.420;6.788;2023-05-07T07:14:36;16.90;99.90
41928;DHT22;27616;51.420;6.788;2023-05-07T07:17:03;17.00;99.90
41928;DHT22;27616;51.420;6.788;2023-05-07T07:19:30;17.10;99.90
41928;DHT22;27616;51.420;6.788;2023-05-07T07:21:57;17.20;99.90
41928;DHT22;27616;51.420;6.788;2023-05-07T07:24:23;17.30;99.90
41928;DHT22;27616;51.420;6.788;2023-05-07T07:26:53;17.20;99.90
41928;DHT22;27616;51.420;6.788;2023-05-07T07:29:21;17.30;99.90
41928;DHT22;27616;51.420;6.788;2023-05-07T07:31:48;17.50;99.90
41928;DHT22;27616;51.420;6.788;2023-05-07T07:34:18;17.60;99.90
41928;DHT22;27616;51.420;6.788;2023-05-07T07:36:45;17.80;99.90
41928;DHT22;27616;51.420;6.788;2023-05-07T07:39:10;18.10;99.90
41928;DHT22;27616;51.420;6.788;2023-05-07T07:41:36;18.20;99.90
41928;DHT22;27616;51.420;6.788;2023-05-07T07:44:03;18.30;99.90
41928;DHT22;27616;51.420;6.788;2023-05-07T07:46:33;18.40;99.90
41928;DHT22;27616;51.420;6.788;2023-05-07T07:49:00;18.40;99.90
41928;DHT22;27616;51.420;6.788;2023-05-07T07:51:26;18.50;99.90
41928;DHT22;27616;51.420;6.788;2023-05-07T07:53:53;18.50;99.90
41928;DHT22;27616;51.420;6.788;2023-05-07T07:56:18;18.60;99.90
41928;DHT22;27616;51.420;6.788;2023-05-07T07:58:44;18.80;99.90
41928;DHT22;27616;51.420;6.788;2023-05-07T08:01:10;19.00;99.90
41928;DHT22;27616;51.420;6.788;2023-05-07T08:03:38;19.30;99.90
41928;DHT22;27616;51.420;6.788;2023-05-07T08:06:04;19.60;99.90
41928;DHT22;27616;51.420;6.788;2023-05-07T08:08:32;19.80;99.90
41928;DHT22;27616;51.420;6.788;2023-05-07T08:10:59;20.10;99.90
41928;DHT22;27616;51.420;6.788;2023-05-07T08:13:29;20.20;99.90
41928;DHT22;27616;51.420;6.788;2023-05-07T08:15:55;20.40;99.90
41928;DHT22;27616;51.420;6.788;2023-05-07T08:18:21;20.40;99.90
41928;DHT22;27616;51.420;6.788;2023-05-07T08:20:48;20.40;99.90
41928;DHT22;27616;51.420;6.788;2023-05-07T08:23:18;20.30;99.90
41928;DHT22;27616;51.420;6.788;2023-05-07T08:25:45;20.40;99.90
41928;DHT22;27616;51.420;6.788;2023-05-07T08:28:11;20.40;99.90
41928;DHT22;27616;51.420;6.788;2023-05-07T08:30:38;20.30;99.90
41928;DHT22;27616;51.420;6.788;2023-05-07T08:33:04;20.00;99.90
41928;DHT22;27616;51.420;6.788;2023-05-07T08:35:29;19.90;99.90
41928;DHT22;27616;51.420;6.788;2023-05-07T08:37:56;20.00;99.90
41928;DHT22;27616;51.420;6.788;2023-05-07T08:40:25;20.00;99.90
41928;DHT22;27616;51.420;6.788;2023-05-07T08:42:53;20.00;99.90
41928;DHT22;27616;51.420;6.788;2023-05-07T08:45:20;20.00;99.90
41928;DHT22;27616;51.420;6.788;2023-05-07T08:47:54;20.00;99.90
41928;DHT22;27616;51.420;6.788;2023-05-07T08:50:23;20.00;99.90
41928;DHT22;27616;51.420;6.788;2023-05-07T08:52:49;20.00;99.90
41928;DHT22;27616;51.420;6.788;2023-05-07T08:55:17;20.10;99.90
41928;DHT22;27616;51.420;6.788;2023-05-07T08:57:44;20.20;99.90
41928;DHT22;27616;51.420;6.788;2023-05-07T09:00:11;20.20;99.90
41928;DHT22;27616;51.420;6.788;2023-05-07T09:02:38;20.30;99.90
41928;DHT22;27616;51.420;6.788;2023-05-07T09:05:05;20.50;99.90
41928;DHT22;27616;51.420;6.788;2023-05-07T09:07:31;20.60;99.90
41928;DHT22;27616;51.420;6.788;2023-05-07T09:09:58;21.00;99.90
41928;DHT22;27616;51.420;6.788;2023-05-07T09:12:25;21.20;99.90
41928;DHT22;27616;51.420;6.788;2023-05-07T09:14:50;21.10;99.90
41928;DHT22;27616;51.420;6.788;2023-05-07T09:17:17;21.50;99.90
41928;DHT22;27616;51.420;6.788;2023-05-07T09:19:44;21.50;99.90
41928;DHT22;27616;51.420;6.788;2023-05-07T09:22:14;21.50;99.90
41928;DHT22;27616;51.420;6.788;2023-05-07T09:24:53;21.50;99.90
41928;DHT22;27616;51.420;6.788;2023-05-07T09:27:22;21.30;99.90
41928;DHT22;27616;51.420;6.788;2023-05-07T09:29:48;21.50;99.90
41928;DHT22;27616;51.420;6.788;2023-05-07T09:32:15;21.80;99.90
41928;DHT22;27616;51.420;6.788;2023-05-07T09:34:41;22.00;99.90
41928;DHT22;27616;51.420;6.788;2023-05-07T09:37:07;22.10;99.90
41928;DHT22;27616;51.420;6.788;2023-05-07T09:39:44;22.30;99.90
41928;DHT22;27616;51.420;6.788;2023-05-07T09:42:13;22.40;99.90
41928;DHT22;27616;51.420;6.788;2023-05-07T09:44:41;22.50;99.90
41928;DHT22;27616;51.420;6.788;2023-05-07T09:47:18;22.50;99.90
41928;DHT22;27616;51.420;6.788;2023-05-07T09:49:47;22.50;99.90
41928;DHT22;27616;51.420;6.788;2023-05-07T09:52:16;22.60;99.90
41928;DHT22;27616;51.420;6.788;2023-05-07T09:54:47;22.80;99.90
41928;DHT22;27616;51.420;6.788;2023-05-07T09:57:17;23.00;99.90
41928;DHT22;27616;51.420;6.788;2023-05-07T09:59:49;23.30;99.90
41928;DHT22;27616;51.420;6.788;2023-05-07T10:02:19;23.40;99.60
41928;DHT22;27616;51.420;6.788;2023-05-07T10:04:50;23.50;99.90
41928;DHT22;27616;51.420;6.788;2023-05-07T10:07:21;23.50;98.10
41928;DHT22;27616;51.420;6.788;2023-05-07T10:09:50;23.50;98.70
41928;DHT22;27616;51.420;6.788;2023-05-07T10:12:29;23.50;99.00
41928;DHT22;27616;51.420;6.788;2023-05-07T10:14:56;23.50;97.10
41928;DHT22;27616;51.420;6.788;2023-05-07T10:17:23;23.60;95.70
41928;DHT22;27616;51.420;6.788;2023-05-07T10:19:50;23.10;96.50
41928;DHT22;27616;51.420;6.788;2023-05-07T10:22:16;22.80;98.00
41928;DHT22;27616;51.420;6.788;2023-05-07T10:24:45;22.90;98.50
41928;DHT22;27616;51.420;6.788;2023-05-07T10:27:16;22.70;99.40
41928;DHT22;27616;51.420;6.788;2023-05-07T10:32:31;22.60;99.30
41928;DHT22;27616;51.420;6.788;2023-05-07T10:35:02;22.50;99.90
41928;DHT22;27616;51.420;6.788;2023-05-07T10:37:29;22.50;99.90
41928;DHT22;27616;51.420;6.788;2023-05-07T10:39:56;22.50;99.80
41928;DHT22;27616;51.420;6.788;2023-05-07T10:42:24;22.50;99.30
41928;DHT22;27616;51.420;6.788;2023-05-07T10:44:52;22.50;99.90
41928;DHT22;27616;51.420;6.788;2023-05-07T10:47:25;22.30;99.90
41928;DHT22;27616;51.420;6.788;2023-05-07T10:52:31;22.40;99.90
41928;DHT22;27616;51.420;6.788;2023-05-07T10:57:49;22.60;99.90
41928;DHT22;27616;51.420;6.788;2023-05-07T11:05:31;22.80;99.90
41928;DHT22;27616;51.420;6.788;2023-05-07T11:08:13;22.70;99.90
41928;DHT22;27616;51.420;6.788;2023-05-07T11:10:55;22.60;99.90
41928;DHT22;27616;51.420;6.788;2023-05-07T11:13:42;22.50;99.90
41928;DHT22;27616;51.420;6.788;2023-05-07T11:16:30;22.40;99.90
41928;DHT22;27616;51.420;6.788;2023-05-07T11:19:50;22.40;99.90
41928;DHT22;27616;51.420;6.788;2023-05-07T11:25:18;22.30;99.90
41928;DHT22;27616;51.420;6.788;2023-05-07T11:27:47;22.30;99.90
41928;DHT22;27616;51.420;6.788;2023-05-07T11:30:19;22.20;99.90
41928;DHT22;27616;51.420;6.788;2023-05-07T11:32:47;22.20;99.90
41928;DHT22;27616;51.420;6.788;2023-05-07T11:35:15;22.20;99.90
41928;DHT22;27616;51.420;6.788;2023-05-07T11:37:44;22.10;99.90
41928;DHT22;27616;51.420;6.788;2023-05-07T11:40:11;22.10;99.90
41928;DHT22;27616;51.420;6.788;2023-05-07T11:42:40;22.10;99.90
41928;DHT22;27616;51.420;6.788;2023-05-07T11:45:08;22.10;99.90
41928;DHT22;27616;51.420;6.788;2023-05-07T11:47:34;22.10;99.50
41928;DHT22;27616;51.420;6.788;2023-05-07T11:50:07;22.30;99.90
41928;DHT22;27616;51.420;6.788;2023-05-07T11:52:34;22.40;99.90
41928;DHT22;27616;51.420;6.788;2023-05-07T11:55:01;22.40;99.90
41928;DHT22;27616;51.420;6.788;2023-05-07T11:57:27;22.40;99.90
41928;DHT22;27616;51.420;6.788;2023-05-07T11:59:57;22.30;99.80
41928;DHT22;27616;51.420;6.788;2023-05-07T12:02:24;22.30;99.60
41928;DHT22;27616;51.420;6.788;2023-05-07T12:04:52;22.20;99.00
41928;DHT22;27616;51.420;6.788;2023-05-07T12:07:18;22.20;99.80
41928;DHT22;27616;51.420;6.788;2023-05-07T12:09:45;22.10;99.50
41928;DHT22;27616;51.420;6.788;2023-05-07T12:12:11;22.10;99.90
41928;DHT22;27616;51.420;6.788;2023-05-07T12:14:41;22.20;99.90
41928;DHT22;27616;51.420;6.788;2023-05-07T12:17:08;22.10;99.90
41928;DHT22;27616;51.420;6.788;2023-05-07T12:19:35;22.10;99.10
41928;DHT22;27616;51.420;6.788;2023-05-07T12:22:02;22.00;99.90
41928;DHT22;27616;51.420;6.788;2023-05-07T12:24:28;22.00;99.80
41928;DHT22;27616;51.420;6.788;2023-05-07T12:26:54;22.00;99.80
41928;DHT22;27616;51.420;6.788;2023-05-07T12:29:23;22.00;99.90
41928;DHT22;27616;51.420;6.788;2023-05-07T12:31:50;21.90;99.90
41928;DHT22;27616;51.420;6.788;2023-05-07T12:34:16;21.80;99.90
41928;DHT22;27616;51.420;6.788;2023-05-07T12:36:41;21.80;99.90
41928;DHT22;27616;51.420;6.788;2023-05-07T12:39:08;21.80;99.90
41928;DHT22;27616;51.420;6.788;2023-05-07T12:41:56;21.80;99.90
41928;DHT22;27616;51.420;6.788;2023-05-07T12:44:33;21.90;99.90
41928;DHT22;27616;51.420;6.788;2023-05-07T12:47:02;21.80;99.70
41928;DHT22;27616;51.420;6.788;2023-05-07T12:49:28;21.80;99.80
41928;DHT22;27616;51.420;6.788;2023-05-07T12:51:54;21.80;99.90
41928;DHT22;27616;51.420;6.788;2023-05-07T12:57:06;21.70;99.90
41928;DHT22;27616;51.420;6.788;2023-05-07T12:59:37;21.70;99.90
41928;DHT22;27616;51.420;6.788;2023-05-07T13:02:04;21.70;99.90
41928;DHT22;27616;51.420;6.788;2023-05-07T13:04:30;21.60;99.90
41928;DHT22;27616;51.420;6.788;2023-05-07T13:06:55;21.60;99.90
41928;DHT22;27616;51.420;6.788;2023-05-07T13:09:21;21.60;99.90
41928;DHT22;27616;51.420;6.788;2023-05-07T13:11:47;21.60;99.90
41928;DHT22;27616;51.420;6.788;2023-05-07T13:14:12;21.50;99.90
41928;DHT22;27616;51.420;6.788;2023-05-07T13:16:38;21.50;99.90
41928;DHT22;27616;51.420;6.788;2023-05-07T13:19:04;21.50;99.90
41928;DHT22;27616;51.420;6.788;2023-05-07T13:21:30;21.30;99.90
41928;DHT22;27616;51.420;6.788;2023-05-07T13:23:57;21.30;99.90
41928;DHT22;27616;51.420;6.788;2023-05-07T13:26:24;21.20;99.90
41928;DHT22;27616;51.420;6.788;2023-05-07T13:28:50;21.20;99.90
41928;DHT22;27616;51.420;6.788;2023-05-07T13:31:17;21.10;99.90
41928;DHT22;27616;51.420;6.788;2023-05-07T13:33:43;20.90;99.90
41928;DHT22;27616;51.420;6.788;2023-05-07T13:36:08;20.80;99.90
41928;DHT22;27616;51.420;6.788;2023-05-07T13:38:34;20.60;99.90
41928;DHT22;27616;51.420;6.788;2023-05-07T13:41:00;20.50;99.90
41928;DHT22;27616;51.420;6.788;2023-05-07T13:43:26;20.40;99.90
41928;DHT22;27616;51.420;6.788;2023-05-07T13:45:52;20.30;99.90
41928;DHT22;27616;51.420;6.788;2023-05-07T13:48:17;20.20;99.90
41928;DHT22;27616;51.420;6.788;2023-05-07T13:50:43;20.10;99.90
41928;DHT22;27616;51.420;6.788;2023-05-07T13:53:09;20.00;99.90
41928;DHT22;27616;51.420;6.788;2023-05-07T13:55:34;19.90;99.90
41928;DHT22;27616;51.420;6.788;2023-05-07T13:58:02;19.80;99.90
41928;DHT22;27616;51.420;6.788;2023-05-07T14:00:29;19.70;99.90
41928;DHT22;27616;51.420;6.788;2023-05-07T14:02:55;19.70;99.90
41928;DHT22;27616;51.420;6.788;2023-05-07T14:05:22;19.70;99.90
41928;DHT22;27616;51.420;6.788;2023-05-07T14:07:54;19.70;99.90
41928;DHT22;27616;51.420;6.788;2023-05-07T14:10:20;19.70;99.90
41928;DHT22;27616;51.420;6.788;2023-05-07T14:12:46;19.60;99.90
41928;DHT22;27616;51.420;6.788;2023-05-07T14:15:14;19.50;99.90
41928;DHT22;27616;51.420;6.788;2023-05-07T14:17:40;19.40;99.90
41928;DHT22;27616;51.420;6.788;2023-05-07T14:20:06;19.20;99.90
41928;DHT22;27616;51.420;6.788;2023-05-07T14:22:32;19.00;99.90
41928;DHT22;27616;51.420;6.788;2023-05-07T14:24:58;18.70;99.90
41928;DHT22;27616;51.420;6.788;2023-05-07T14:27:23;18.50;99.90
41928;DHT22;27616;51.420;6.788;2023-05-07T14:29:49;18.30;99.90
41928;DHT22;27616;51.420;6.788;2023-05-07T14:32:20;18.10;99.90
41928;DHT22;27616;51.420;6.788;2023-05-07T14:34:46;17.90;99.90
41928;DHT22;27616;51.420;6.788;2023-05-07T14:37:12;17.70;99.90
41928;DHT22;27616;51.420;6.788;2023-05-07T14:39:38;17.60;99.90
41928;DHT22;27616;51.420;6.788;2023-05-07T14:42:04;17.60;99.90
41928;DHT22;27616;51.420;6.788;2023-05-07T14:44:30;17.60;99.90
41928;DHT22;27616;51.420;6.788;2023-05-07T14:46:56;17.50;99.90
41928;DHT22;27616;51.420;6.788;2023-05-07T14:49:22;17.50;99.90
41928;DHT22;27616;51.420;6.788;2023-05-07T14:51:49;17.40;99.90
41928;DHT22;27616;51.420;6.788;2023-05-07T14:54:15;17.30;99.90
41928;DHT22;27616;51.420;6.788;2023-05-07T14:56:42;17.30;99.90
41928;DHT22;27616;51.420;6.788;2023-05-07T14:59:08;17.30;99.90
41928;DHT22;27616;51.420;6.788;2023-05-07T15:01:35;17.30;99.90
41928;DHT22;27616;51.420;6.788;2023-05-07T15:04:02;17.30;99.90
41928;DHT22;27616;51.420;6.788;2023-05-07T15:06:28;17.30;99.90
41928;DHT22;27616;51.420;6.788;2023-05-07T15:08:54;17.30;99.90
41928;DHT22;27616;51.420;6.788;2023-05-07T15:11:20;17.30;99.90
41928;DHT22;27616;51.420;6.788;2023-05-07T15:13:46;17.30;99.90
41928;DHT22;27616;51.420;6.788;2023-05-07T15:16:11;17.40;99.90
41928;DHT22;27616;51.420;6.788;2023-05-07T15:18:38;17.40;99.90
41928;DHT22;27616;51.420;6.788;2023-05-07T15:21:03;17.40;99.90
41928;DHT22;27616;51.420;6.788;2023-05-07T15:23:31;17.40;99.90
41928;DHT22;27616;51.420;6.788;2023-05-07T15:25:57;17.40;99.90
41928;DHT22;27616;51.420;6.788;2023-05-07T15:28:22;17.40;99.90
41928;DHT22;27616;51.420;6.788;2023-05-07T15:30:49;17.40;99.90
41928;DHT22;27616;51.420;6.788;2023-05-07T15:33:15;17.50;99.90
41928;DHT22;27616;51.420;6.788;2023-05-07T15:35:41;17.50;99.90
41928;DHT22;27616;51.420;6.788;2023-05-07T15:38:07;17.50;99.90
41928;DHT22;27616;51.420;6.788;2023-05-07T15:40:34;17.60;99.90
41928;DHT22;27616;51.420;6.788;2023-05-07T15:43:00;17.60;99.90
41928;DHT22;27616;51.420;6.788;2023-05-07T15:45:26;17.50;99.90
41928;DHT22;27616;51.420;6.788;2023-05-07T15:47:52;17.50;99.90
41928;DHT22;27616;51.420;6.788;2023-05-07T15:50:17;17.40;99.90